sensor_id;sensor_type;location;lat;lon;timestamp;temperature;humidity
4697;DHT22;2362;50.780;0.292;2023-07-20T00:01:43;17.00;99.90
4697;DHT22;2362;50.780;0.292;2023-07-20T00:04:10;17.00;99.90
4697;DHT22;2362;50.780;0.292;2023-07-20T00:06:36;16.90;99.90
4697;DHT22;2362;50.780;0.292;2023-07-20T00:09:08;17.00;99.90
4697;DHT22;2362;50.780;0.292;2023-07-20T00:11:36;17.00;99.90
4697;DHT22;2362;50.780;0.292;2023-07-20T00:14:06;16.90;99.90
4697;DHT22;2362;50.780;0.292;2023-07-20T00:16:32;16.90;99.90
4697;DHT22;2362;50.780;0.292;2023-07-20T00:18:57;16.80;99.90
4697;DHT22;2362;50.780;0.292;2023-07-20T00:21:23;16.70;99.90
4697;DHT22;2362;50.780;0.292;2023-07-20T00:23:49;16.70;99.90
4697;DHT22;2362;50.780;0.292;2023-07-20T00:26:14;16.70;99.90
4697;DHT22;2362;50.780;0.292;2023-07-20T00:28:40;16.60;99.90
4697;DHT22;2362;50.780;0.292;2023-07-20T00:31:06;16.50;99.90
4697;DHT22;2362;50.780;0.292;2023-07-20T00:33:31;16.40;99.90
4697;DHT22;2362;50.780;0.292;2023-07-20T00:35:58;16.40;99.90
4697;DHT22;2362;50.780;0.292;2023-07-20T00:38:23;16.30;99.90
4697;DHT22;2362;50.780;0.292;2023-07-20T00:40:49;16.20;99.90
4697;DHT22;2362;50.780;0.292;2023-07-20T00:43:15;16.20;99.90
4697;DHT22;2362;50.780;0.292;2023-07-20T00:45:41;16.20;99.90
4697;DHT22;2362;50.780;0.292;2023-07-20T00:48:08;16.10;99.90
4697;DHT22;2362;50.780;0.292;2023-07-20T00:50:34;16.10;99.90
4697;DHT22;2362;50.780;0.292;2023-07-20T00:53:00;16.00;99.90
4697;DHT22;2362;50.780;0.292;2023-07-20T00:55:30;15.90;99.90
4697;DHT22;2362;50.780;0.292;2023-07-20T00:57:56;15.90;99.90
4697;DHT22;2362;50.780;0.292;2023-07-20T01:00:22;15.90;99.90
4697;DHT22;2362;50.780;0.292;2023-07-20T01:02:47;15.90;99.90
4697;DHT22;2362;50.780;0.292;2023-07-20T01:05:13;15.80;99.90
4697;DHT22;2362;50.780;0.292;2023-07-20T01:07:46;15.80;99.90
4697;DHT22;2362;50.780;0.292;2023-07-20T01:10:18;15.80;99.90
4697;DHT22;2362;50.780;0.292;2023-07-20T01:12:49;15.80;99.90
4697;DHT22;2362;50.780;0.292;2023-07-20T01:15:17;15.70;99.90
4697;DHT22;2362;50.780;0.292;2023-07-20T01:17:42;15.70;99.90
4697;DHT22;2362;50.780;0.292;2023-07-20T01:20:13;15.60;99.90
4697;DHT22;2362;50.780;0.292;2023-07-20T01:33:46;15.40;99.90
4697;DHT22;2362;50.780;0.292;2023-07-20T01:36:14;15.40;99.90
4697;DHT22;2362;50.780;0.292;2023-07-20T01:38:42;15.40;99.90
4697;DHT22;2362;50.780;0.292;2023-07-20T01:41:08;15.30;99.90
4697;DHT22;2362;50.780;0.292;2023-07-20T01:43:34;15.30;99.90
4697;DHT22;2362;50.780;0.292;2023-07-20T01:46:00;15.20;99.90
4697;DHT22;2362;50.780;0.292;2023-07-20T01:48:26;15.20;99.90
4697;DHT22;2362;50.780;0.292;2023-07-20T01:50:51;15.20;99.90
4697;DHT22;2362;50.780;0.292;2023-07-20T01:53:17;15.20;99.90
4697;DHT22;2362;50.780;0.292;2023-07-20T01:55:43;15.20;99.90
4697;DHT22;2362;50.780;0.292;2023-07-20T01:58:09;15.20;99.90
4697;DHT22;2362;50.780;0.292;2023-07-20T02:00:37;15.20;99.90
4697;DHT22;2362;50.780;0.292;2023-07-20T02:03:02;15.10;99.90
4697;DHT22;2362;50.780;0.292;2023-07-20T02:05:28;15.10;99.90
4697;DHT22;2362;50.780;0.292;2023-07-20T02:07:54;15.00;99.90
4697;DHT22;2362;50.780;0.292;2023-07-20T02:10:19;15.00;99.90
4697;DHT22;2362;50.780;0.292;2023-07-20T02:12:46;15.00;99.90
4697;DHT22;2362;50.780;0.292;2023-07-20T02:15:11;14.90;99.90
4697;DHT22;2362;50.780;0.292;2023-07-20T02:17:39;14.90;99.90
4697;DHT22;2362;50.780;0.292;2023-07-20T02:20:07;14.90;99.90
4697;DHT22;2362;50.780;0.292;2023-07-20T02:22:35;14.90;99.90
4697;DHT22;2362;50.780;0.292;2023-07-20T02:25:01;14.90;99.90
4697;DHT22;2362;50.780;0.292;2023-07-20T02:27:27;14.90;99.90
4697;DHT22;2362;50.780;0.292;2023-07-20T02:29:53;14.80;99.90
4697;DHT22;2362;50.780;0.292;2023-07-20T02:32:18;14.90;99.90
4697;DHT22;2362;50.780;0.292;2023-07-20T02:34:44;14.90;99.90
4697;DHT22;2362;50.780;0.292;2023-07-20T02:37:09;14.80;99.90
4697;DHT22;2362;50.780;0.292;2023-07-20T02:39:39;14.80;99.90
4697;DHT22;2362;50.780;0.292;2023-07-20T02:42:05;14.70;99.90
4697;DHT22;2362;50.780;0.292;2023-07-20T02:44:31;14.70;99.90
4697;DHT22;2362;50.780;0.292;2023-07-20T02:46:57;14.70;99.90
4697;DHT22;2362;50.780;0.292;2023-07-20T02:49:22;14.70;99.90
4697;DHT22;2362;50.780;0.292;2023-07-20T02:51:48;14.60;99.90
4697;DHT22;2362;50.780;0.292;2023-07-20T02:54:15;14.60;99.90
4697;DHT22;2362;50.780;0.292;2023-07-20T02:56:40;14.50;99.90
4697;DHT22;2362;50.780;0.292;2023-07-20T02:59:06;14.50;99.90
4697;DHT22;2362;50.780;0.292;2023-07-20T03:01:31;14.50;99.90
4697;DHT22;2362;50.780;0.292;2023-07-20T03:03:57;14.50;99.90
4697;DHT22;2362;50.780;0.292;2023-07-20T03:06:23;14.50;99.90
4697;DHT22;2362;50.780;0.292;2023-07-20T03:08:49;14.40;99.90
4697;DHT22;2362;50.780;0.292;2023-07-20T03:11:18;14.40;99.90
4697;DHT22;2362;50.780;0.292;2023-07-20T03:13:45;14.40;99.90
4697;DHT22;2362;50.780;0.292;2023-07-20T03:16:12;14.40;99.90
4697;DHT22;2362;50.780;0.292;2023-07-20T03:18:41;14.30;99.90
4697;DHT22;2362;50.780;0.292;2023-07-20T03:21:09;14.30;99.90
4697;DHT22;2362;50.780;0.292;2023-07-20T03:23:39;14.30;99.90
4697;DHT22;2362;50.780;0.292;2023-07-20T03:26:05;14.30;99.90
4697;DHT22;2362;50.780;0.292;2023-07-20T03:28:30;14.30;99.90
4697;DHT22;2362;50.780;0.292;2023-07-20T03:30:57;14.20;99.90
4697;DHT22;2362;50.780;0.292;2023-07-20T03:33:27;14.20;99.90
4697;DHT22;2362;50.780;0.292;2023-07-20T03:35:53;14.20;99.90
4697;DHT22;2362;50.780;0.292;2023-07-20T03:38:20;14.20;99.90
4697;DHT22;2362;50.780;0.292;2023-07-20T03:40:55;14.10;99.90
4697;DHT22;2362;50.780;0.292;2023-07-20T03:43:23;14.20;99.90
4697;DHT22;2362;50.780;0.292;2023-07-20T03:45:49;14.10;99.90
4697;DHT22;2362;50.780;0.292;2023-07-20T03:48:16;14.10;99.90
4697;DHT22;2362;50.780;0.292;2023-07-20T03:50:44;14.10;99.90
4697;DHT22;2362;50.780;0.292;2023-07-20T03:53:10;14.20;99.90
4697;DHT22;2362;50.780;0.292;2023-07-20T03:55:35;14.10;99.90
4697;DHT22;2362;50.780;0.292;2023-07-20T03:58:01;14.10;99.90
4697;DHT22;2362;50.780;0.292;2023-07-20T04:00:27;14.10;99.90
4697;DHT22;2362;50.780;0.292;2023-07-20T04:02:53;14.10;99.90
4697;DHT22;2362;50.780;0.292;2023-07-20T04:05:19;14.00;99.90
4697;DHT22;2362;50.780;0.292;2023-07-20T04:07:44;14.00;99.90
4697;DHT22;2362;50.780;0.292;2023-07-20T04:10:10;14.00;99.90
4697;DHT22;2362;50.780;0.292;2023-07-20T04:12:36;14.00;99.90
4697;DHT22;2362;50.780;0.292;2023-07-20T04:15:02;14.00;99.90
4697;DHT22;2362;50.780;0.292;2023-07-20T04:17:29;14.00;99.90
4697;DHT22;2362;50.780;0.292;2023-07-20T04:19:54;14.00;99.90
4697;DHT22;2362;50.780;0.292;2023-07-20T04:22:20;13.90;99.90
4697;DHT22;2362;50.780;0.292;2023-07-20T04:24:46;13.90;99.90
4697;DHT22;2362;50.780;0.292;2023-07-20T04:27:12;14.00;99.90
4697;DHT22;2362;50.780;0.292;2023-07-20T04:29:37;13.90;99.90
4697;DHT22;2362;50.780;0.292;2023-07-20T04:32:03;13.90;99.90
4697;DHT22;2362;50.780;0.292;2023-07-20T04:34:29;13.90;99.90
4697;DHT22;2362;50.780;0.292;2023-07-20T04:36:55;13.90;99.90
4697;DHT22;2362;50.780;0.292;2023-07-20T04:39:20;13.90;99.90
4697;DHT22;2362;50.780;0.292;2023-07-20T04:41:46;14.00;99.90
4697;DHT22;2362;50.780;0.292;2023-07-20T04:44:13;14.00;99.90
4697;DHT22;2362;50.780;0.292;2023-07-20T04:46:39;14.00;99.90
4697;DHT22;2362;50.780;0.292;2023-07-20T04:49:06;14.00;99.90
4697;DHT22;2362;50.780;0.292;2023-07-20T04:51:31;14.00;99.90
4697;DHT22;2362;50.780;0.292;2023-07-20T04:53:57;14.00;99.90
4697;DHT22;2362;50.780;0.292;2023-07-20T04:56:24;14.00;99.90
4697;DHT22;2362;50.780;0.292;2023-07-20T04:58:50;14.00;99.90
4697;DHT22;2362;50.780;0.292;2023-07-20T05:01:16;14.00;99.90
4697;DHT22;2362;50.780;0.292;2023-07-20T05:03:41;14.10;99.90
4697;DHT22;2362;50.780;0.292;2023-07-20T05:06:07;14.10;99.90
4697;DHT22;2362;50.780;0.292;2023-07-20T05:08:33;14.10;99.90
4697;DHT22;2362;50.780;0.292;2023-07-20T05:10:59;14.10;99.90
4697;DHT22;2362;50.780;0.292;2023-07-20T05:13:25;14.20;99.90
4697;DHT22;2362;50.780;0.292;2023-07-20T05:15:52;14.30;99.90
4697;DHT22;2362;50.780;0.292;2023-07-20T05:18:18;14.30;99.90
4697;DHT22;2362;50.780;0.292;2023-07-20T05:20:49;14.40;99.90
4697;DHT22;2362;50.780;0.292;2023-07-20T05:23:16;14.70;99.90
4697;DHT22;2362;50.780;0.292;2023-07-20T05:25:42;15.30;99.90
4697;DHT22;2362;50.780;0.292;2023-07-20T05:28:08;15.80;99.90
4697;DHT22;2362;50.780;0.292;2023-07-20T05:30:34;16.10;99.90
4697;DHT22;2362;50.780;0.292;2023-07-20T05:32:59;16.30;99.90
4697;DHT22;2362;50.780;0.292;2023-07-20T05:35:26;16.70;99.90
4697;DHT22;2362;50.780;0.292;2023-07-20T05:37:51;17.10;99.90
4697;DHT22;2362;50.780;0.292;2023-07-20T05:40:17;17.60;99.90
4697;DHT22;2362;50.780;0.292;2023-07-20T05:42:45;17.80;99.90
4697;DHT22;2362;50.780;0.292;2023-07-20T05:45:12;18.10;99.90
4697;DHT22;2362;50.780;0.292;2023-07-20T05:47:37;18.50;99.90
4697;DHT22;2362;50.780;0.292;2023-07-20T05:50:03;18.90;99.90
4697;DHT22;2362;50.780;0.292;2023-07-20T05:52:29;19.10;99.90
4697;DHT22;2362;50.780;0.292;2023-07-20T05:54:55;19.40;99.90
4697;DHT22;2362;50.780;0.292;2023-07-20T05:57:21;19.60;99.90
4697;DHT22;2362;50.780;0.292;2023-07-20T05:59:46;20.00;99.90
4697;DHT22;2362;50.780;0.292;2023-07-20T06:02:12;20.40;99.90
4697;DHT22;2362;50.780;0.292;2023-07-20T06:04:39;20.80;99.90
4697;DHT22;2362;50.780;0.292;2023-07-20T06:07:04;20.90;99.90
4697;DHT22;2362;50.780;0.292;2023-07-20T06:09:30;21.20;99.90
4697;DHT22;2362;50.780;0.292;2023-07-20T06:11:56;21.20;99.90
4697;DHT22;2362;50.780;0.292;2023-07-20T06:14:22;20.80;99.90
4697;DHT22;2362;50.780;0.292;2023-07-20T06:16:47;20.30;99.90
4697;DHT22;2362;50.780;0.292;2023-07-20T06:19:13;20.30;99.90
4697;DHT22;2362;50.780;0.292;2023-07-20T06:21:39;20.70;99.90
4697;DHT22;2362;50.780;0.292;2023-07-20T06:24:05;20.90;99.90
4697;DHT22;2362;50.780;0.292;2023-07-20T06:26:31;21.30;99.90
4697;DHT22;2362;50.780;0.292;2023-07-20T06:28:57;21.40;99.90
4697;DHT22;2362;50.780;0.292;2023-07-20T06:31:23;20.80;99.90
4697;DHT22;2362;50.780;0.292;2023-07-20T06:33:49;20.60;99.90
4697;DHT22;2362;50.780;0.292;2023-07-20T06:36:18;21.20;99.90
4697;DHT22;2362;50.780;0.292;2023-07-20T06:38:43;21.90;99.90
4697;DHT22;2362;50.780;0.292;2023-07-20T06:41:09;22.20;99.90
4697;DHT22;2362;50.780;0.292;2023-07-20T06:43:34;22.40;99.90
4697;DHT22;2362;50.780;0.292;2023-07-20T06:46:00;22.90;99.90
4697;DHT22;2362;50.780;0.292;2023-07-20T06:48:26;23.20;99.90
4697;DHT22;2362;50.780;0.292;2023-07-20T06:50:52;23.20;99.90
4697;DHT22;2362;50.780;0.292;2023-07-20T06:53:18;23.30;99.90
4697;DHT22;2362;50.780;0.292;2023-07-20T06:55:43;22.60;99.90
4697;DHT22;2362;50.780;0.292;2023-07-20T06:58:10;22.20;99.90
4697;DHT22;2362;50.780;0.292;2023-07-20T07:00:36;22.10;99.90
4697;DHT22;2362;50.780;0.292;2023-07-20T07:03:01;22.70;99.90
4697;DHT22;2362;50.780;0.292;2023-07-20T07:05:28;22.90;99.90
4697;DHT22;2362;50.780;0.292;2023-07-20T07:07:53;22.90;99.90
4697;DHT22;2362;50.780;0.292;2023-07-20T07:10:19;22.90;99.90
4697;DHT22;2362;50.780;0.292;2023-07-20T07:12:45;22.70;99.90
4697;DHT22;2362;50.780;0.292;2023-07-20T07:15:10;22.70;99.90
4697;DHT22;2362;50.780;0.292;2023-07-20T07:17:36;23.00;99.90
4697;DHT22;2362;50.780;0.292;2023-07-20T07:20:02;22.90;99.90
4697;DHT22;2362;50.780;0.292;2023-07-20T07:22:29;23.00;99.90
4697;DHT22;2362;50.780;0.292;2023-07-20T07:24:55;23.30;99.90
4697;DHT22;2362;50.780;0.292;2023-07-20T07:27:20;23.50;99.90
4697;DHT22;2362;50.780;0.292;2023-07-20T07:29:46;23.30;99.90
4697;DHT22;2362;50.780;0.292;2023-07-20T07:32:12;23.40;99.90
4697;DHT22;2362;50.780;0.292;2023-07-20T07:34:38;23.20;99.90
4697;DHT22;2362;50.780;0.292;2023-07-20T07:37:04;23.60;99.90
4697;DHT22;2362;50.780;0.292;2023-07-20T07:39:30;24.20;99.90
4697;DHT22;2362;50.780;0.292;2023-07-20T07:41:57;24.30;99.90
4697;DHT22;2362;50.780;0.292;2023-07-20T07:44:23;24.20;99.90
4697;DHT22;2362;50.780;0.292;2023-07-20T07:46:49;24.00;99.90
4697;DHT22;2362;50.780;0.292;2023-07-20T07:49:15;24.10;99.90
4697;DHT22;2362;50.780;0.292;2023-07-20T07:51:41;24.10;99.90
4697;DHT22;2362;50.780;0.292;2023-07-20T07:54:07;24.30;99.90
4697;DHT22;2362;50.780;0.292;2023-07-20T07:56:32;24.10;99.90
4697;DHT22;2362;50.780;0.292;2023-07-20T07:58:58;24.10;99.90
4697;DHT22;2362;50.780;0.292;2023-07-20T08:01:24;24.60;99.90
4697;DHT22;2362;50.780;0.292;2023-07-20T08:03:50;24.90;99.90
4697;DHT22;2362;50.780;0.292;2023-07-20T08:06:16;25.00;99.90
4697;DHT22;2362;50.780;0.292;2023-07-20T08:08:42;24.90;99.90
4697;DHT22;2362;50.780;0.292;2023-07-20T08:11:08;25.10;99.90
4697;DHT22;2362;50.780;0.292;2023-07-20T08:13:34;25.10;99.90
4697;DHT22;2362;50.780;0.292;2023-07-20T08:16:01;25.30;99.90
4697;DHT22;2362;50.780;0.292;2023-07-20T08:18:28;25.90;99.90
4697;DHT22;2362;50.780;0.292;2023-07-20T08:20:54;25.40;99.90
4697;DHT22;2362;50.780;0.292;2023-07-20T08:23:19;24.80;99.90
4697;DHT22;2362;50.780;0.292;2023-07-20T08:25:45;24.50;99.90
4697;DHT22;2362;50.780;0.292;2023-07-20T08:28:15;24.10;99.90
4697;DHT22;2362;50.780;0.292;2023-07-20T08:30:46;23.70;99.90
4697;DHT22;2362;50.780;0.292;2023-07-20T08:33:16;23.40;99.90
4697;DHT22;2362;50.780;0.292;2023-07-20T08:35:44;23.00;99.90
4697;DHT22;2362;50.780;0.292;2023-07-20T08:38:10;22.70;99.90
4697;DHT22;2362;50.780;0.292;2023-07-20T08:40:44;23.10;99.90
4697;DHT22;2362;50.780;0.292;2023-07-20T08:43:11;23.30;99.90
4697;DHT22;2362;50.780;0.292;2023-07-20T08:45:39;23.20;99.90
4697;DHT22;2362;50.780;0.292;2023-07-20T08:48:06;22.50;99.90
4697;DHT22;2362;50.780;0.292;2023-07-20T08:50:35;21.90;99.90
4697;DHT22;2362;50.780;0.292;2023-07-20T08:53:01;21.30;99.90
4697;DHT22;2362;50.780;0.292;2023-07-20T08:55:28;21.20;99.90
4697;DHT22;2362;50.780;0.292;2023-07-20T08:57:55;21.30;99.90
4697;DHT22;2362;50.780;0.292;2023-07-20T09:00:21;21.20;99.90
4697;DHT22;2362;50.780;0.292;2023-07-20T09:02:49;21.20;99.90
4697;DHT22;2362;50.780;0.292;2023-07-20T09:05:16;21.50;99.90
4697;DHT22;2362;50.780;0.292;2023-07-20T09:07:42;22.10;99.90
4697;DHT22;2362;50.780;0.292;2023-07-20T09:10:08;22.30;99.90
4697;DHT22;2362;50.780;0.292;2023-07-20T09:12:42;22.20;99.90
4697;DHT22;2362;50.780;0.292;2023-07-20T09:15:09;21.80;99.90
4697;DHT22;2362;50.780;0.292;2023-07-20T09:17:35;21.50;99.90
4697;DHT22;2362;50.780;0.292;2023-07-20T09:20:06;21.30;99.90
4697;DHT22;2362;50.780;0.292;2023-07-20T09:22:39;21.40;99.90
4697;DHT22;2362;50.780;0.292;2023-07-20T09:25:17;21.20;99.90
4697;DHT22;2362;50.780;0.292;2023-07-20T09:27:47;21.10;99.90
4697;DHT22;2362;50.780;0.292;2023-07-20T09:30:17;21.10;99.90
4697;DHT22;2362;50.780;0.292;2023-07-20T09:32:44;21.10;99.90
4697;DHT22;2362;50.780;0.292;2023-07-20T09:35:14;20.90;99.90
4697;DHT22;2362;50.780;0.292;2023-07-20T09:37:46;21.20;99.90
4697;DHT22;2362;50.780;0.292;2023-07-20T09:40:15;21.10;99.90
4697;DHT22;2362;50.780;0.292;2023-07-20T09:42:42;21.10;99.90
4697;DHT22;2362;50.780;0.292;2023-07-20T09:45:08;21.10;99.90
4697;DHT22;2362;50.780;0.292;2023-07-20T09:47:36;21.00;99.90
4697;DHT22;2362;50.780;0.292;2023-07-20T09:50:04;20.80;99.90
4697;DHT22;2362;50.780;0.292;2023-07-20T09:52:30;20.80;99.90
4697;DHT22;2362;50.780;0.292;2023-07-20T09:54:57;20.70;99.90
4697;DHT22;2362;50.780;0.292;2023-07-20T09:57:23;20.80;99.90
4697;DHT22;2362;50.780;0.292;2023-07-20T09:59:49;20.70;99.90
4697;DHT22;2362;50.780;0.292;2023-07-20T10:02:25;20.50;99.90
4697;DHT22;2362;50.780;0.292;2023-07-20T10:04:53;20.40;99.90
4697;DHT22;2362;50.780;0.292;2023-07-20T10:07:19;20.60;99.90
4697;DHT22;2362;50.780;0.292;2023-07-20T10:09:48;21.10;99.90
4697;DHT22;2362;50.780;0.292;2023-07-20T10:12:17;21.60;99.90
4697;DHT22;2362;50.780;0.292;2023-07-20T10:14:52;21.80;99.90
4697;DHT22;2362;50.780;0.292;2023-07-20T10:17:18;21.50;99.90
4697;DHT22;2362;50.780;0.292;2023-07-20T10:19:47;21.50;99.90
4697;DHT22;2362;50.780;0.292;2023-07-20T10:22:35;21.80;99.90
4697;DHT22;2362;50.780;0.292;2023-07-20T10:25:01;22.10;99.90
4697;DHT22;2362;50.780;0.292;2023-07-20T10:27:27;22.40;99.90
4697;DHT22;2362;50.780;0.292;2023-07-20T10:29:53;22.80;99.90
4697;DHT22;2362;50.780;0.292;2023-07-20T10:32:20;23.00;99.90
4697;DHT22;2362;50.780;0.292;2023-07-20T10:34:51;22.90;99.90
4697;DHT22;2362;50.780;0.292;2023-07-20T10:42:51;22.20;99.90
4697;DHT22;2362;50.780;0.292;2023-07-20T10:45:21;22.10;99.90
4697;DHT22;2362;50.780;0.292;2023-07-20T10:47:47;21.90;99.90
4697;DHT22;2362;50.780;0.292;2023-07-20T10:50:12;22.00;99.90
4697;DHT22;2362;50.780;0.292;2023-07-20T10:52:40;22.10;99.90
4697;DHT22;2362;50.780;0.292;2023-07-20T10:55:18;21.80;99.90
4697;DHT22;2362;50.780;0.292;2023-07-20T10:58:11;22.00;99.90
4697;DHT22;2362;50.780;0.292;2023-07-20T11:00:38;22.00;99.90
4697;DHT22;2362;50.780;0.292;2023-07-20T11:03:29;22.20;99.90
4697;DHT22;2362;50.780;0.292;2023-07-20T11:05:56;22.40;99.90
4697;DHT22;2362;50.780;0.292;2023-07-20T11:08:41;22.40;99.90
4697;DHT22;2362;50.780;0.292;2023-07-20T11:11:28;22.70;99.90
4697;DHT22;2362;50.780;0.292;2023-07-20T11:13:59;22.90;99.90
4697;DHT22;2362;50.780;0.292;2023-07-20T11:16:35;22.60;99.90
4697;DHT22;2362;50.780;0.292;2023-07-20T11:19:03;22.60;99.90
4697;DHT22;2362;50.780;0.292;2023-07-20T11:21:30;22.90;99.90
4697;DHT22;2362;50.780;0.292;2023-07-20T11:24:03;23.20;99.90
4697;DHT22;2362;50.780;0.292;2023-07-20T11:26:28;23.20;99.90
4697;DHT22;2362;50.780;0.292;2023-07-20T11:28:54;23.10;99.90
4697;DHT22;2362;50.780;0.292;2023-07-20T11:31:20;23.30;99.90
4697;DHT22;2362;50.780;0.292;2023-07-20T11:33:46;23.40;99.90
4697;DHT22;2362;50.780;0.292;2023-07-20T11:36:12;23.10;99.90
4697;DHT22;2362;50.780;0.292;2023-07-20T11:38:41;23.20;99.90
4697;DHT22;2362;50.780;0.292;2023-07-20T11:41:07;23.50;99.90
4697;DHT22;2362;50.780;0.292;2023-07-20T11:43:33;23.60;99.90
4697;DHT22;2362;50.780;0.292;2023-07-20T11:45:59;23.90;99.90
4697;DHT22;2362;50.780;0.292;2023-07-20T11:48:25;23.90;99.90
4697;DHT22;2362;50.780;0.292;2023-07-20T11:50:51;23.70;99.90
4697;DHT22;2362;50.780;0.292;2023-07-20T11:53:17;24.00;99.90
4697;DHT22;2362;50.780;0.292;2023-07-20T11:55:43;24.30;99.90
4697;DHT22;2362;50.780;0.292;2023-07-20T11:58:09;24.30;99.90
4697;DHT22;2362;50.780;0.292;2023-07-20T12:00:38;24.30;99.90
4697;DHT22;2362;50.780;0.292;2023-07-20T12:03:06;24.40;99.90
4697;DHT22;2362;50.780;0.292;2023-07-20T12:05:33;24.20;99.90
4697;DHT22;2362;50.780;0.292;2023-07-20T12:07:58;24.20;99.90
4697;DHT22;2362;50.780;0.292;2023-07-20T12:10:28;24.10;99.90
4697;DHT22;2362;50.780;0.292;2023-07-20T12:12:54;24.10;99.90
4697;DHT22;2362;50.780;0.292;2023-07-20T12:15:25;24.00;99.90
4697;DHT22;2362;50.780;0.292;2023-07-20T12:17:58;23.80;99.90
4697;DHT22;2362;50.780;0.292;2023-07-20T12:20:36;23.60;99.90
4697;DHT22;2362;50.780;0.292;2023-07-20T12:23:12;23.50;99.90
4697;DHT22;2362;50.780;0.292;2023-07-20T12:25:45;23.40;99.90
4697;DHT22;2362;50.780;0.292;2023-07-20T12:28:13;23.10;99.90
4697;DHT22;2362;50.780;0.292;2023-07-20T12:30:40;23.00;99.90
4697;DHT22;2362;50.780;0.292;2023-07-20T12:33:06;23.10;99.90
4697;DHT22;2362;50.780;0.292;2023-07-20T12:35:33;23.30;99.90
4697;DHT22;2362;50.780;0.292;2023-07-20T12:37:59;23.30;99.90
4697;DHT22;2362;50.780;0.292;2023-07-20T12:40:25;23.40;99.90
4697;DHT22;2362;50.780;0.292;2023-07-20T12:42:51;23.40;99.90
4697;DHT22;2362;50.780;0.292;2023-07-20T12:45:16;23.40;99.90
4697;DHT22;2362;50.780;0.292;2023-07-20T12:47:43;23.10;99.90
4697;DHT22;2362;50.780;0.292;2023-07-20T12:50:12;23.10;99.90
4697;DHT22;2362;50.780;0.292;2023-07-20T12:52:39;23.10;99.90
4697;DHT22;2362;50.780;0.292;2023-07-20T12:55:06;23.10;99.90
4697;DHT22;2362;50.780;0.292;2023-07-20T12:57:36;23.20;99.90
4697;DHT22;2362;50.780;0.292;2023-07-20T13:00:04;23.30;99.90
4697;DHT22;2362;50.780;0.292;2023-07-20T13:02:31;23.10;99.90
4697;DHT22;2362;50.780;0.292;2023-07-20T13:04:58;23.30;99.90
4697;DHT22;2362;50.780;0.292;2023-07-20T13:07:37;23.50;99.90
4697;DHT22;2362;50.780;0.292;2023-07-20T13:10:04;23.80;99.90
4697;DHT22;2362;50.780;0.292;2023-07-20T13:12:32;23.60;99.90
4697;DHT22;2362;50.780;0.292;2023-07-20T13:14:58;23.40;99.90
4697;DHT22;2362;50.780;0.292;2023-07-20T13:17:26;23.50;99.90
4697;DHT22;2362;50.780;0.292;2023-07-20T13:19:52;23.30;99.90
4697;DHT22;2362;50.780;0.292;2023-07-20T13:22:18;23.30;99.90
4697;DHT22;2362;50.780;0.292;2023-07-20T13:24:47;23.30;99.90
4697;DHT22;2362;50.780;0.292;2023-07-20T13:27:17;23.00;99.90
4697;DHT22;2362;50.780;0.292;2023-07-20T13:29:43;23.10;99.90
4697;DHT22;2362;50.780;0.292;2023-07-20T13:32:10;23.20;99.90
4697;DHT22;2362;50.780;0.292;2023-07-20T13:34:36;23.30;99.90
4697;DHT22;2362;50.780;0.292;2023-07-20T13:37:02;23.30;99.90
4697;DHT22;2362;50.780;0.292;2023-07-20T13:39:27;23.20;99.90
4697;DHT22;2362;50.780;0.292;2023-07-20T13:41:53;23.20;99.90
4697;DHT22;2362;50.780;0.292;2023-07-20T13:44:20;23.20;99.90
4697;DHT22;2362;50.780;0.292;2023-07-20T13:46:47;23.10;99.90
4697;DHT22;2362;50.780;0.292;2023-07-20T13:49:13;23.10;99.90
4697;DHT22;2362;50.780;0.292;2023-07-20T13:51:40;23.10;99.90
4697;DHT22;2362;50.780;0.292;2023-07-20T13:54:06;23.00;99.90
4697;DHT22;2362;50.780;0.292;2023-07-20T13:56:32;22.80;99.90
4697;DHT22;2362;50.780;0.292;2023-07-20T13:58:58;22.70;99.90
4697;DHT22;2362;50.780;0.292;2023-07-20T14:01:23;22.50;99.90
4697;DHT22;2362;50.780;0.292;2023-07-20T14:03:50;22.50;99.90
4697;DHT22;2362;50.780;0.292;2023-07-20T14:06:16;22.30;99.90
4697;DHT22;2362;50.780;0.292;2023-07-20T14:08:43;22.10;99.90
4697;DHT22;2362;50.780;0.292;2023-07-20T14:11:12;22.10;99.90
4697;DHT22;2362;50.780;0.292;2023-07-20T14:13:38;22.00;99.90
4697;DHT22;2362;50.780;0.292;2023-07-20T14:16:04;22.10;99.90
4697;DHT22;2362;50.780;0.292;2023-07-20T14:18:30;22.10;99.90
4697;DHT22;2362;50.780;0.292;2023-07-20T14:20:55;22.10;99.90
4697;DHT22;2362;50.780;0.292;2023-07-20T14:23:21;22.30;99.90
4697;DHT22;2362;50.780;0.292;2023-07-20T14:25:48;22.20;99.90
4697;DHT22;2362;50.780;0.292;2023-07-20T14:28:14;22.20;99.90
4697;DHT22;2362;50.780;0.292;2023-07-20T14:30:41;22.20;99.90
4697;DHT22;2362;50.780;0.292;2023-07-20T14:33:07;21.90;99.90
4697;DHT22;2362;50.780;0.292;2023-07-20T14:35:34;22.00;99.90
4697;DHT22;2362;50.780;0.292;2023-07-20T14:38:00;22.00;99.90
4697;DHT22;2362;50.780;0.292;2023-07-20T14:40:26;22.00;99.90
4697;DHT22;2362;50.780;0.292;2023-07-20T14:42:52;22.00;99.90
4697;DHT22;2362;50.780;0.292;2023-07-20T14:45:18;22.00;99.90
4697;DHT22;2362;50.780;0.292;2023-07-20T14:47:44;21.90;99.90
4697;DHT22;2362;50.780;0.292;2023-07-20T14:50:11;21.60;99.90
4697;DHT22;2362;50.780;0.292;2023-07-20T14:52:37;21.60;99.90
4697;DHT22;2362;50.780;0.292;2023-07-20T14:55:03;21.70;99.90
4697;DHT22;2362;50.780;0.292;2023-07-20T14:57:29;22.00;99.90
4697;DHT22;2362;50.780;0.292;2023-07-20T14:59:54;22.00;99.90
4697;DHT22;2362;50.780;0.292;2023-07-20T15:02:20;22.10;99.90
4697;DHT22;2362;50.780;0.292;2023-07-20T15:04:47;22.10;99.90
4697;DHT22;2362;50.780;0.292;2023-07-20T15:07:13;22.10;99.90
4697;DHT22;2362;50.780;0.292;2023-07-20T15:09:38;22.10;99.90
4697;DHT22;2362;50.780;0.292;2023-07-20T15:12:05;22.10;99.90
4697;DHT22;2362;50.780;0.292;2023-07-20T15:14:31;22.10;99.90
4697;DHT22;2362;50.780;0.292;2023-07-20T15:16:56;22.00;99.90
4697;DHT22;2362;50.780;0.292;2023-07-20T15:19:22;21.70;99.90
4697;DHT22;2362;50.780;0.292;2023-07-20T15:21:48;21.60;99.90
4697;DHT22;2362;50.780;0.292;2023-07-20T15:24:13;21.60;99.90
4697;DHT22;2362;50.780;0.292;2023-07-20T15:26:39;21.70;99.90
4697;DHT22;2362;50.780;0.292;2023-07-20T15:29:06;21.80;99.90
4697;DHT22;2362;50.780;0.292;2023-07-20T15:31:32;22.00;99.90
4697;DHT22;2362;50.780;0.292;2023-07-20T15:33:58;22.10;99.90
4697;DHT22;2362;50.780;0.292;2023-07-20T15:36:24;22.20;99.90
4697;DHT22;2362;50.780;0.292;2023-07-20T15:38:50;22.20;99.90
4697;DHT22;2362;50.780;0.292;2023-07-20T15:41:15;22.20;99.90
4697;DHT22;2362;50.780;0.292;2023-07-20T15:43:42;21.80;99.90
4697;DHT22;2362;50.780;0.292;2023-07-20T15:46:52;21.70;99.90
4697;DHT22;2362;50.780;0.292;2023-07-20T15:49:17;21.70;99.90
4697;DHT22;2362;50.780;0.292;2023-07-20T15:51:43;21.80;99.90
4697;DHT22;2362;50.780;0.292;2023-07-20T15:54:12;21.90;99.90
4697;DHT22;2362;50.780;0.292;2023-07-20T15:56:39;22.00;99.90
4697;DHT22;2362;50.780;0.292;2023-07-20T15:59:06;21.90;99.90
4697;DHT22;2362;50.780;0.292;2023-07-20T16:01:32;22.00;99.90
4697;DHT22;2362;50.780;0.292;2023-07-20T16:03:59;22.00;99.90
4697;DHT22;2362;50.780;0.292;2023-07-20T16:06:25;22.00;99.90
4697;DHT22;2362;50.780;0.292;2023-07-20T16:08:51;22.10;99.90
4697;DHT22;2362;50.780;0.292;2023-07-20T16:11:18;22.00;99.90
4697;DHT22;2362;50.780;0.292;2023-07-20T16:13:44;22.10;99.90
4697;DHT22;2362;50.780;0.292;2023-07-20T16:16:12;22.20;99.90
4697;DHT22;2362;50.780;0.292;2023-07-20T16:18:38;21.90;99.90